This is the latest recevied weather packets stored in our database for station/object KB0BS-13. If no packets are shown the sender has not sent any weather packets the latest 10 day(s).
| Time | Temp. | Humidity | Pressure | Rain* | Wind** | Luminosity | Snow |
|---|---|---|---|---|---|---|---|
| 1777744293 | 8.33° C | 41% | 1016.2 hPa | 0 mm | - | 798 W/m² | - |
| 1777743990 | 8.33° C | 41% | 1016.3 hPa | 0 mm | - | 746 W/m² | - |
| 1777743686 | 7.78° C | 43% | 1016.5 hPa | 0 mm | - | 760 W/m² | - |
| 1777743385 | 7.78° C | 43% | 1016.6 hPa | 0 mm | - | 194 W/m² | - |
| 1777743082 | 8.33° C | 43% | 1016.3 hPa | 0 mm | - | 495 W/m² | - |
| 1777742779 | 7.78° C | 46% | 1016.1 hPa | 0 mm | - | 754 W/m² | - |
| 1777742475 | 7.78° C | 43% | 1016.5 hPa | 0 mm | - | 395 W/m² | - |
| 1777742171 | 7.78° C | 40% | 1016.2 hPa | 0 mm | - | 759 W/m² | - |
| 1777741868 | 8.33° C | 38% | 1016.6 hPa | 0 mm | - | 745 W/m² | - |
| 1777741565 | 8.33° C | 41% | 1016.6 hPa | 0 mm | - | 751 W/m² | - |
| 1777741262 | 7.78° C | 39% | 1016.6 hPa | 0 mm | - | 735 W/m² | - |
| 1777740958 | 7.78° C | 34% | 1016.8 hPa | 0 mm | - | 714 W/m² | - |
| 1777740656 | 7.22° C | 35% | 1016.8 hPa | 0 mm | - | 703 W/m² | - |
| 1777740351 | 8.33° C | 40% | 1016.9 hPa | 0 mm | - | 697 W/m² | - |
| 1777740049 | 7.78° C | 36% | 1016.8 hPa | 0 mm | - | 695 W/m² | - |
| 1777739745 | 7.22° C | 40% | 1016.9 hPa | 0 mm | - | 692 W/m² | - |
| 1777739442 | 7.78° C | 39% | 1017 hPa | 0 mm | - | 691 W/m² | - |
| 1777739138 | 7.78° C | 36% | 1017.1 hPa | 0 mm | - | 695 W/m² | - |
| 1777738836 | 7.78° C | 45% | 1017 hPa | 0 mm | - | 694 W/m² | - |
| 1777738532 | 7.78° C | 41% | 1017 hPa | 0 mm | - | 678 W/m² | - |
| 1777738230 | 7.22° C | 39% | 1017 hPa | 0 mm | - | 671 W/m² | - |
| 1777737928 | 7.78° C | 39% | 1017 hPa | 0 mm | - | 671 W/m² | - |
| 1777737626 | 7.78° C | 42% | 1017.2 hPa | 0 mm | - | 663 W/m² | - |
| 1777737325 | 7.78° C | 39% | 1017 hPa | 0 mm | - | 654 W/m² | - |
| 1777737021 | 7.78° C | 38% | 1017.2 hPa | 0 mm | - | 648 W/m² | - |
* Rain latest hour (hover to see other rain measurements)
** Current wind speed in m/s (hover to see current wind gust speed)